createdAt,value
2023-02-09T00:01:31.341Z,25.63
2023-02-09T00:03:59.759Z,27.57
2023-02-09T00:06:29.910Z,24.90
2023-02-09T00:08:58.764Z,26.07
2023-02-09T00:11:48.988Z,24.43
2023-02-09T00:14:21.419Z,26.50
2023-02-09T00:16:50.283Z,24.73
2023-02-09T00:19:18.403Z,25.50
2023-02-09T00:21:46.185Z,24.57
2023-02-09T00:24:14.282Z,24.53
2023-02-09T00:26:42.731Z,27.67
2023-02-09T00:29:10.504Z,27.80
2023-02-09T00:31:38.087Z,26.43
2023-02-09T00:34:06.269Z,27.93
2023-02-09T00:36:33.661Z,29.20
2023-02-09T00:39:01.293Z,28.37
2023-02-09T00:41:47.559Z,29.93
2023-02-09T00:44:14.751Z,28.67
2023-02-09T00:46:41.728Z,29.97
2023-02-09T00:49:08.968Z,29.47
2023-02-09T00:51:36.135Z,28.37
2023-02-09T00:54:03.804Z,26.00
2023-02-09T00:56:30.941Z,25.77
2023-02-09T00:58:57.912Z,29.10
2023-02-09T01:01:25.002Z,25.00
2023-02-09T01:03:52.093Z,26.77
2023-02-09T01:06:19.045Z,26.60
2023-02-09T01:08:46.016Z,23.70
2023-02-09T01:11:15.820Z,28.40
2023-02-09T01:13:44.383Z,27.23
2023-02-09T01:16:15.823Z,24.00
2023-02-09T01:18:43.906Z,25.77
2023-02-09T01:21:22.085Z,26.43
2023-02-09T01:23:50.088Z,23.50
2023-02-09T01:26:17.789Z,22.77
2023-02-09T01:28:48.911Z,20.67
2023-02-09T01:31:36.126Z,20.37
2023-02-09T01:34:04.643Z,17.37
2023-02-09T01:36:32.812Z,15.90
2023-02-09T01:39:02.156Z,13.27
2023-02-09T01:41:29.792Z,14.57
2023-02-09T01:44:12.281Z,13.67
2023-02-09T01:46:39.990Z,13.73
2023-02-09T01:49:17.384Z,13.73
2023-02-09T01:51:54.742Z,17.07
2023-02-09T01:54:49.524Z,13.17
2023-02-09T01:57:24.402Z,12.87
2023-02-09T01:59:58.839Z,16.40
2023-02-09T02:02:26.317Z,16.13
2023-02-09T02:04:53.713Z,15.93
2023-02-09T02:07:43.121Z,13.87
2023-02-09T02:10:10.837Z,14.43
2023-02-09T02:12:39.606Z,14.57
2023-02-09T02:15:07.931Z,14.03
2023-02-09T02:17:54.407Z,13.87
2023-02-09T02:20:26.926Z,13.13
2023-02-09T02:23:27.967Z,12.73
2023-02-09T02:26:09.637Z,14.33
2023-02-09T02:29:14.816Z,12.83
2023-02-09T02:32:27.981Z,10.27
2023-02-09T02:34:59.864Z,13.40
2023-02-09T02:37:48.026Z,14.70
2023-02-09T02:40:27.218Z,14.37
2023-02-09T02:43:12.275Z,15.67
2023-02-09T02:46:11.090Z,15.37
2023-02-09T02:48:56.361Z,14.50
2023-02-09T02:51:43.492Z,15.70
2023-02-09T02:54:19.170Z,18.17
2023-02-09T02:56:58.972Z,14.37
2023-02-09T02:59:34.905Z,14.93
2023-02-09T03:02:20.127Z,17.57
2023-02-09T03:04:51.049Z,14.97
2023-02-09T03:07:18.779Z,17.97
2023-02-09T03:09:55.393Z,12.47
2023-02-09T03:12:47.401Z,13.33
2023-02-09T03:15:28.929Z,11.83
2023-02-09T03:18:29.640Z,17.83
2023-02-09T03:21:14.911Z,14.70
2023-02-09T03:23:59.768Z,12.83
2023-02-09T03:26:36.804Z,15.27
2023-02-09T03:29:15.637Z,14.43
2023-02-09T03:31:42.897Z,12.77
2023-02-09T03:34:10.675Z,13.60
2023-02-09T03:36:39.836Z,17.60
2023-02-09T03:39:06.841Z,14.30
2023-02-09T03:41:33.769Z,14.17
2023-02-09T03:44:19.686Z,15.10
2023-02-09T03:46:46.740Z,14.13
2023-02-09T03:49:14.990Z,13.97
2023-02-09T03:51:42.967Z,13.57
2023-02-09T03:54:10.021Z,18.77
2023-02-09T03:56:37.621Z,15.93
2023-02-09T03:59:06.127Z,17.97
2023-02-09T04:01:33.475Z,16.60
2023-02-09T04:04:02.807Z,14.00
2023-02-09T04:06:31.778Z,15.10
2023-02-09T04:09:03.497Z,13.90
2023-02-09T04:11:30.529Z,20.23
2023-02-09T04:13:58.058Z,16.63
2023-02-09T04:16:25.262Z,17.70
2023-02-09T04:18:53.048Z,17.03
2023-02-09T04:21:20.137Z,14.97
2023-02-09T04:23:47.760Z,19.80
2023-02-09T04:26:15.502Z,15.40
2023-02-09T04:28:42.492Z,18.97
2023-02-09T04:31:09.974Z,16.00
2023-02-09T04:33:37.275Z,16.00
2023-02-09T04:36:05.623Z,17.60
2023-02-09T04:38:32.802Z,16.40
2023-02-09T04:41:02.696Z,17.60
2023-02-09T04:43:30.766Z,18.73
2023-02-09T04:45:58.471Z,15.50
2023-02-09T04:48:27.505Z,17.70
2023-02-09T04:50:55.086Z,18.67
2023-02-09T04:53:22.915Z,16.73
2023-02-09T04:55:52.950Z,19.07
2023-02-09T04:58:39.603Z,16.33
2023-02-09T05:01:08.170Z,17.57
2023-02-09T05:03:35.405Z,17.97
2023-02-09T05:06:05.690Z,17.50
2023-02-09T05:08:33.072Z,16.03
2023-02-09T05:11:00.314Z,17.40
2023-02-09T05:13:28.301Z,16.70
2023-02-09T05:15:56.259Z,18.30
2023-02-09T05:18:24.340Z,18.33
2023-02-09T05:20:51.405Z,20.17
2023-02-09T05:23:18.579Z,15.40
2023-02-09T05:25:46.192Z,18.00
2023-02-09T05:28:13.191Z,17.57
2023-02-09T05:30:40.355Z,17.97
2023-02-09T05:33:07.479Z,17.47
2023-02-09T05:35:49.892Z,18.77
2023-02-09T05:38:16.900Z,15.53
2023-02-09T05:40:45.259Z,21.27
2023-02-09T05:43:12.598Z,17.57
2023-02-09T05:45:39.622Z,20.20
2023-02-09T05:48:06.994Z,16.27
2023-02-09T05:50:35.727Z,17.30
2023-02-09T05:53:03.510Z,15.53
2023-02-09T05:55:30.648Z,15.00
2023-02-09T05:57:57.577Z,19.53
2023-02-09T06:00:25.363Z,17.97
2023-02-09T06:02:52.663Z,17.37
2023-02-09T06:05:21.968Z,19.87
2023-02-09T06:07:49.541Z,16.37
2023-02-09T06:10:18.222Z,18.07
2023-02-09T06:12:45.255Z,20.27
2023-02-09T06:15:13.008Z,18.63
2023-02-09T06:17:40.001Z,16.30
2023-02-09T06:20:07.564Z,20.07
2023-02-09T06:22:34.608Z,19.53
2023-02-09T06:25:02.630Z,18.83
2023-02-09T06:27:29.592Z,17.63
2023-02-09T06:29:56.542Z,17.50
2023-02-09T06:32:23.510Z,17.90
2023-02-09T06:34:50.512Z,19.90
2023-02-09T06:37:17.465Z,17.87
2023-02-09T06:39:44.497Z,16.40
2023-02-09T06:42:11.655Z,19.70
2023-02-09T06:44:38.586Z,20.17
2023-02-09T06:47:05.617Z,22.37
2023-02-09T06:49:32.774Z,22.53
2023-02-09T06:51:59.985Z,22.43
2023-02-09T06:54:29.291Z,25.63
2023-02-09T06:57:02.132Z,22.43
2023-02-09T06:59:29.238Z,24.60
2023-02-09T07:01:56.238Z,27.33
2023-02-09T07:04:23.248Z,27.47
2023-02-09T07:06:50.481Z,27.97
2023-02-09T07:09:17.409Z,20.63
2023-02-09T07:11:44.476Z,24.03
2023-02-09T07:14:11.456Z,23.57
2023-02-09T07:16:38.403Z,25.73
2023-02-09T07:19:05.449Z,25.17
2023-02-09T07:21:32.430Z,22.97
2023-02-09T07:23:59.456Z,22.40
2023-02-09T07:26:26.519Z,22.43
2023-02-09T07:28:53.535Z,29.87
2023-02-09T07:31:20.715Z,24.23
2023-02-09T07:33:48.015Z,23.70
2023-02-09T07:36:16.756Z,25.83
2023-02-09T07:38:44.457Z,29.17
2023-02-09T07:41:19.422Z,29.03
2023-02-09T07:43:47.159Z,32.53
2023-02-09T07:46:20.013Z,26.93
2023-02-09T07:48:48.182Z,23.83
2023-02-09T07:51:17.790Z,24.20
2023-02-09T07:53:44.800Z,23.90
2023-02-09T07:56:12.694Z,26.57
2023-02-09T07:58:40.113Z,27.93
2023-02-09T08:01:10.572Z,26.63
2023-02-09T08:03:39.175Z,25.33
2023-02-09T08:06:45.215Z,23.97
2023-02-09T08:09:16.651Z,24.63
2023-02-09T08:11:57.533Z,19.30
2023-02-09T08:14:31.381Z,23.60
2023-02-09T08:17:27.983Z,22.10
2023-02-09T08:20:04.092Z,25.47
2023-02-09T08:22:35.479Z,24.83
2023-02-09T08:25:04.485Z,26.03
2023-02-09T08:27:32.087Z,20.20
2023-02-09T08:30:00.426Z,26.30
2023-02-09T08:32:27.544Z,24.10
2023-02-09T08:34:54.525Z,25.03
2023-02-09T08:37:21.496Z,25.53
2023-02-09T08:39:48.421Z,25.80
2023-02-09T08:42:15.382Z,23.03
2023-02-09T08:44:42.346Z,27.27
2023-02-09T08:47:09.378Z,25.73
2023-02-09T08:49:36.552Z,21.70
2023-02-09T08:52:03.696Z,22.03
2023-02-09T08:54:30.878Z,27.47
2023-02-09T08:56:57.867Z,31.50
2023-02-09T08:59:24.832Z,29.90
2023-02-09T09:01:51.927Z,19.83
2023-02-09T09:04:21.024Z,21.97
2023-02-09T09:06:48.365Z,21.97
2023-02-09T09:09:15.659Z,22.67
2023-02-09T09:11:42.599Z,23.43
2023-02-09T09:14:09.590Z,24.07
2023-02-09T09:16:36.650Z,24.23
2023-02-09T09:19:05.353Z,22.40
2023-02-09T09:21:33.610Z,27.87
2023-02-09T09:24:00.565Z,26.90
2023-02-09T09:26:27.581Z,25.67
2023-02-09T09:28:54.551Z,35.63
2023-02-09T09:31:21.642Z,30.77
2023-02-09T09:33:48.647Z,27.70
2023-02-09T09:36:15.978Z,25.40
2023-02-09T09:38:43.724Z,26.00
2023-02-09T09:41:26.392Z,26.10
2023-02-09T09:43:55.062Z,29.43
2023-02-09T09:46:35.774Z,24.63
2023-02-09T09:49:03.971Z,25.60
2023-02-09T09:51:38.566Z,28.57
2023-02-09T09:54:13.187Z,25.63
2023-02-09T09:56:41.686Z,29.67
2023-02-09T09:59:34.941Z,30.17
2023-02-09T10:02:18.321Z,28.37
2023-02-09T10:04:45.535Z,24.83
2023-02-09T10:07:20.128Z,34.60
2023-02-09T10:10:01.106Z,26.23
2023-02-09T10:12:49.190Z,26.50
2023-02-09T10:15:31.466Z,29.13
2023-02-09T10:17:59.837Z,27.83
2023-02-09T10:21:03.649Z,36.47
2023-02-09T10:23:43.541Z,31.20
2023-02-09T10:26:10.874Z,24.00
2023-02-09T10:28:51.332Z,33.53
2023-02-09T10:31:29.501Z,26.57
2023-02-09T10:34:30.291Z,28.37
2023-02-09T10:37:28.152Z,28.37
2023-02-09T10:40:14.695Z,28.30
2023-02-09T10:42:57.817Z,28.80
2023-02-09T10:45:33.428Z,38.57
2023-02-09T10:48:40.662Z,30.60
2023-02-09T10:51:15.532Z,33.97
2023-02-09T10:54:02.104Z,33.23
2023-02-09T10:56:46.866Z,28.27
2023-02-09T10:59:25.787Z,37.33
2023-02-09T11:02:03.346Z,34.37
2023-02-09T11:04:39.564Z,31.70
2023-02-09T11:07:13.577Z,34.50
2023-02-09T11:09:46.653Z,30.73
2023-02-09T11:12:14.364Z,29.83
2023-02-09T11:14:43.062Z,32.13
2023-02-09T11:17:27.152Z,31.53
2023-02-09T11:20:24.836Z,31.13
2023-02-09T11:23:13.524Z,35.10
2023-02-09T11:26:17.753Z,32.50
2023-02-09T11:28:47.410Z,32.03
2023-02-09T11:32:07.155Z,38.57
2023-02-09T11:35:15.428Z,33.90
2023-02-09T11:37:57.127Z,31.13
2023-02-09T11:40:43.072Z,30.07
2023-02-09T11:43:19.024Z,31.50
2023-02-09T11:45:52.922Z,36.13
2023-02-09T11:48:34.307Z,32.87
2023-02-09T11:51:14.801Z,38.33
2023-02-09T11:53:59.708Z,34.23
2023-02-09T11:56:28.486Z,33.07
2023-02-09T11:59:34.538Z,35.30
2023-02-09T12:02:42.458Z,32.07
2023-02-09T12:05:17.001Z,34.37
2023-02-09T12:08:26.997Z,34.43
2023-02-09T12:11:14.351Z,34.40
2023-02-09T12:13:55.158Z,39.97
2023-02-09T12:16:44.720Z,42.80
2023-02-09T12:19:37.080Z,34.50
2023-02-09T12:22:35.058Z,36.47
2023-02-09T12:25:22.152Z,38.23
2023-02-09T12:28:29.627Z,35.87
2023-02-09T12:31:19.085Z,37.60
2023-02-09T12:33:46.002Z,33.87
2023-02-09T12:36:12.909Z,39.40
2023-02-09T12:39:03.930Z,35.07
2023-02-09T12:41:51.020Z,36.77
2023-02-09T12:44:18.492Z,33.50
2023-02-09T12:46:45.588Z,29.87
2023-02-09T12:49:12.484Z,33.00
2023-02-09T12:51:55.052Z,39.70
2023-02-09T12:54:51.011Z,36.90
2023-02-09T12:57:20.723Z,39.43
2023-02-09T12:59:51.074Z,38.17
2023-02-09T13:02:55.053Z,35.60
2023-02-09T13:05:38.120Z,33.73
2023-02-09T13:08:29.834Z,36.77
2023-02-09T13:10:57.717Z,34.90
2023-02-09T13:13:33.803Z,37.67
2023-02-09T13:16:01.736Z,34.83
2023-02-09T13:18:49.401Z,35.73
2023-02-09T13:21:31.748Z,35.77
2023-02-09T13:24:10.814Z,37.60
2023-02-09T13:26:58.290Z,43.63
2023-02-09T13:29:29.119Z,34.53
2023-02-09T13:32:15.432Z,36.60
2023-02-09T13:35:01.410Z,35.33
2023-02-09T13:37:49.649Z,34.40
2023-02-09T13:40:33.625Z,39.30
2023-02-09T13:43:12.038Z,37.40
2023-02-09T13:45:53.947Z,36.23
2023-02-09T13:48:33.758Z,37.80
2023-02-09T13:51:13.873Z,39.57
2023-02-09T13:53:40.846Z,40.23
2023-02-09T13:56:12.152Z,39.30
2023-02-09T13:58:40.464Z,39.27
2023-02-09T14:01:14.498Z,43.37
2023-02-09T14:03:58.896Z,38.33
2023-02-09T14:06:52.953Z,38.40
2023-02-09T14:09:42.599Z,39.17
2023-02-09T14:12:18.097Z,38.90
2023-02-09T14:15:12.913Z,40.03
2023-02-09T14:17:40.113Z,37.23
2023-02-09T14:20:25.529Z,38.63
2023-02-09T14:22:59.432Z,40.87
2023-02-09T14:25:30.772Z,39.60
2023-02-09T14:27:58.494Z,39.70
2023-02-09T14:30:34.183Z,38.30
2023-02-09T14:33:03.440Z,40.00
2023-02-09T14:35:41.768Z,36.80
2023-02-09T14:38:36.823Z,34.60
2023-02-09T14:41:33.031Z,37.80
2023-02-09T14:44:20.468Z,34.03
2023-02-09T14:46:57.384Z,40.53
2023-02-09T14:49:26.202Z,45.60
2023-02-09T14:52:05.457Z,36.47
2023-02-09T14:54:43.066Z,35.87
2023-02-09T14:57:12.211Z,35.57
2023-02-09T14:59:39.153Z,42.63
2023-02-09T15:02:27.016Z,37.83
2023-02-09T15:04:55.293Z,35.67
2023-02-09T15:07:30.489Z,38.93
2023-02-09T15:09:57.531Z,42.53
2023-02-09T15:12:28.213Z,38.00
2023-02-09T15:14:59.703Z,40.23
2023-02-09T15:17:30.543Z,42.53
2023-02-09T15:19:59.055Z,44.07
2023-02-09T15:22:26.114Z,45.67
2023-02-09T15:24:54.554Z,39.37
2023-02-09T15:27:33.660Z,40.07
2023-02-09T15:30:04.030Z,40.73
2023-02-09T15:32:31.651Z,40.47
2023-02-09T15:34:58.658Z,39.90
2023-02-09T15:37:35.052Z,40.97
2023-02-09T15:40:40.586Z,38.53
2023-02-09T15:43:41.817Z,42.70
2023-02-09T15:46:28.539Z,42.77
2023-02-09T15:48:55.787Z,39.63
2023-02-09T15:51:25.256Z,39.47
2023-02-09T15:53:55.097Z,46.47
2023-02-09T15:56:22.409Z,38.87
2023-02-09T15:58:54.345Z,41.70
2023-02-09T16:01:21.371Z,39.43
2023-02-09T16:03:49.067Z,45.27
2023-02-09T16:06:24.740Z,42.97
2023-02-09T16:08:53.764Z,46.77
2023-02-09T16:11:33.043Z,40.70
2023-02-09T16:14:01.479Z,39.47
2023-02-09T16:16:30.646Z,41.27
2023-02-09T16:18:57.647Z,39.43
2023-02-09T16:21:29.510Z,42.27
2023-02-09T16:23:59.066Z,51.17
2023-02-09T16:26:28.113Z,62.53
2023-02-09T16:28:55.687Z,42.43
2023-02-09T16:31:23.920Z,62.93
2023-02-09T16:33:51.505Z,48.17
2023-02-09T16:36:24.771Z,46.43
2023-02-09T16:38:51.774Z,39.20
2023-02-09T16:41:37.911Z,41.30
2023-02-09T16:44:21.953Z,40.40
2023-02-09T16:46:55.548Z,43.20
2023-02-09T16:49:35.264Z,50.43
2023-02-09T16:52:26.004Z,39.77
2023-02-09T16:54:57.801Z,45.67
2023-02-09T16:57:26.887Z,47.23
2023-02-09T16:59:54.801Z,44.00
2023-02-09T17:02:58.620Z,45.83
2023-02-09T17:05:34.908Z,42.87
2023-02-09T17:08:13.782Z,44.43
2023-02-09T17:10:40.869Z,48.57
2023-02-09T17:13:07.807Z,43.50
2023-02-09T17:15:48.630Z,40.63
2023-02-09T17:18:28.986Z,46.97
2023-02-09T17:21:00.879Z,48.73
2023-02-09T17:23:30.352Z,50.13
2023-02-09T17:25:57.746Z,46.03
2023-02-09T17:28:27.722Z,44.57
2023-02-09T17:30:59.467Z,46.43
2023-02-09T17:33:36.439Z,43.20
2023-02-09T17:36:25.826Z,52.20
2023-02-09T17:38:52.199Z,52.60
2023-02-09T17:41:37.147Z,54.67
2023-02-09T17:44:24.088Z,49.60
2023-02-09T17:46:54.524Z,49.93
2023-02-09T17:49:21.707Z,50.33
2023-02-09T17:51:49.556Z,45.70
2023-02-09T17:54:20.226Z,54.80
2023-02-09T17:56:47.589Z,44.77
2023-02-09T17:59:14.941Z,50.20
2023-02-09T18:01:46.037Z,67.90
2023-02-09T18:04:22.783Z,73.10
2023-02-09T18:06:50.181Z,61.47
2023-02-09T18:09:17.176Z,58.83
2023-02-09T18:12:07.886Z,46.23
2023-02-09T18:14:35.093Z,49.40
2023-02-09T18:17:04.396Z,56.60
2023-02-09T18:19:32.918Z,55.27
2023-02-09T18:22:01.873Z,55.03
2023-02-09T18:24:32.845Z,52.23
2023-02-09T18:26:59.913Z,48.67
2023-02-09T18:29:29.682Z,45.20
2023-02-09T18:31:59.799Z,54.23
2023-02-09T18:34:27.773Z,52.63
2023-02-09T18:36:54.934Z,52.67
2023-02-09T18:39:22.260Z,49.87
2023-02-09T18:41:54.843Z,51.43
2023-02-09T18:44:28.706Z,53.33
2023-02-09T18:46:57.601Z,51.37
2023-02-09T18:49:24.612Z,60.10
2023-02-09T18:51:52.290Z,55.73
2023-02-09T18:54:19.538Z,53.77
2023-02-09T18:56:46.467Z,50.83
2023-02-09T18:59:13.459Z,50.00
2023-02-09T19:01:41.071Z,53.57
2023-02-09T19:04:08.814Z,77.73
2023-02-09T19:06:36.404Z,57.70
2023-02-09T19:09:03.601Z,58.80
2023-02-09T19:11:30.660Z,53.50
2023-02-09T19:14:16.535Z,52.10
2023-02-09T19:16:43.577Z,55.80
2023-02-09T19:19:12.486Z,51.87
2023-02-09T19:21:39.553Z,51.10
2023-02-09T19:24:07.485Z,48.97
2023-02-09T19:26:34.501Z,53.67
2023-02-09T19:29:02.095Z,55.43
2023-02-09T19:31:29.059Z,55.43
2023-02-09T19:33:57.608Z,55.50
2023-02-09T19:36:27.912Z,50.10
2023-02-09T19:38:56.491Z,50.40
2023-02-09T19:41:25.707Z,53.30
2023-02-09T19:43:57.506Z,57.93
2023-02-09T19:46:25.292Z,101.50
2023-02-09T19:48:53.908Z,55.60
2023-02-09T19:51:21.445Z,55.27
2023-02-09T19:53:48.685Z,54.83
2023-02-09T19:56:17.673Z,53.40
2023-02-09T19:58:45.098Z,50.10
2023-02-09T20:01:12.631Z,51.33
2023-02-09T20:03:40.233Z,57.23
2023-02-09T20:06:10.414Z,100.40
2023-02-09T20:08:39.378Z,95.27
2023-02-09T20:11:17.219Z,95.63
2023-02-09T20:13:44.722Z,115.33
2023-02-09T20:16:19.706Z,63.60
2023-02-09T20:18:49.891Z,84.97
2023-02-09T20:21:18.482Z,88.53
2023-02-09T20:23:46.683Z,79.60
2023-02-09T20:26:24.520Z,74.60
2023-02-09T20:28:51.520Z,72.27
2023-02-09T20:31:26.229Z,69.93
2023-02-09T20:33:53.977Z,67.67
2023-02-09T20:36:23.771Z,60.87
2023-02-09T20:38:51.460Z,59.97
2023-02-09T20:41:18.793Z,59.17
2023-02-09T20:44:04.964Z,59.57
2023-02-09T20:46:52.238Z,62.47
2023-02-09T20:49:19.725Z,64.17
2023-02-09T20:51:47.652Z,64.13
2023-02-09T20:54:15.212Z,64.37
2023-02-09T20:56:42.498Z,60.37
2023-02-09T20:59:10.646Z,64.97
2023-02-09T21:01:39.144Z,55.07
2023-02-09T21:04:07.469Z,58.03
2023-02-09T21:06:37.513Z,59.33
2023-02-09T21:09:11.239Z,58.07
2023-02-09T21:11:38.336Z,61.63
2023-02-09T21:14:05.535Z,59.83
2023-02-09T21:16:33.423Z,60.80
2023-02-09T21:19:01.867Z,59.37
2023-02-09T21:21:29.531Z,60.50
2023-02-09T21:23:56.574Z,66.43
2023-02-09T21:26:24.528Z,61.43
2023-02-09T21:28:56.215Z,59.60
2023-02-09T21:31:27.719Z,61.03
2023-02-09T21:33:54.897Z,66.03
2023-02-09T21:36:22.014Z,62.07
2023-02-09T21:38:48.975Z,60.83
2023-02-09T21:41:44.117Z,58.33
2023-02-09T21:44:12.673Z,63.07
2023-02-09T21:46:39.696Z,66.00
2023-02-09T21:49:07.196Z,60.80
2023-02-09T21:51:35.067Z,61.40
2023-02-09T21:54:02.122Z,63.73
2023-02-09T21:56:29.112Z,58.83
2023-02-09T21:58:56.052Z,68.60
2023-02-09T22:01:23.040Z,62.87
2023-02-09T22:03:52.755Z,69.17
2023-02-09T22:06:19.772Z,63.63
2023-02-09T22:08:46.745Z,65.47
2023-02-09T22:11:13.710Z,74.70
2023-02-09T22:13:40.694Z,67.73
2023-02-09T22:16:09.457Z,64.13
2023-02-09T22:18:37.357Z,67.47
2023-02-09T22:21:08.090Z,67.10
2023-02-09T22:23:35.100Z,68.87
2023-02-09T22:26:04.600Z,70.87
2023-02-09T22:28:33.385Z,74.80
2023-02-09T22:31:13.909Z,72.17
2023-02-09T22:33:40.948Z,69.70
2023-02-09T22:36:12.759Z,70.87
2023-02-09T22:38:40.262Z,67.60
2023-02-09T22:41:21.530Z,68.43
2023-02-09T22:43:56.635Z,72.40
2023-02-09T22:46:27.141Z,67.93
2023-02-09T22:48:57.524Z,76.40
2023-02-09T22:51:28.353Z,69.00
2023-02-09T22:53:57.209Z,62.13
2023-02-09T22:56:24.896Z,61.07
2023-02-09T22:58:57.229Z,59.80
2023-02-09T23:01:24.272Z,61.80
2023-02-09T23:03:51.438Z,62.00
2023-02-09T23:06:23.430Z,61.47
2023-02-09T23:08:58.325Z,57.73
2023-02-09T23:11:26.499Z,64.90
2023-02-09T23:14:08.592Z,67.73
2023-02-09T23:16:37.660Z,62.40
2023-02-09T23:19:07.931Z,76.50
2023-02-09T23:21:38.598Z,76.10
2023-02-09T23:24:06.105Z,74.70
2023-02-09T23:26:33.454Z,76.13
2023-02-09T23:29:04.966Z,90.33
2023-02-09T23:31:32.329Z,93.53
2023-02-09T23:33:59.424Z,95.73
2023-02-09T23:36:30.319Z,84.73
2023-02-09T23:39:06.369Z,95.63
2023-02-09T23:41:34.900Z,93.60
2023-02-09T23:44:03.056Z,82.57
2023-02-09T23:46:30.351Z,88.93
2023-02-09T23:48:58.245Z,95.73
2023-02-09T23:51:30.292Z,84.73
2023-02-09T23:54:00.277Z,81.67
2023-02-09T23:56:29.930Z,92.30
2023-02-09T23:58:57.115Z,76.27
